Time;durP1;ratioP1;P1;durP2;ratioP2;P2;SDS_P1;SDS_P2;PMS_P1;PMS_P2;Temp;Humidity;BMP_temperature;BMP_pressure;BME280_temperature;BME280_humidity;BME280_pressure;Samples;Min_cycle;Max_cycle;Signal;HPM_P1;HPM_P2
2022/07/10 00:00:13;;;;;;;;;;;;;;;18.38;66.32;99753.88;4994903;28;20036;-73
2022/07/10 00:02:42;;;;;;;;;;;;;;;18.43;66.26;99754.56;4998411;28;19925;-73
2022/07/10 00:05:11;;;;;;;;;;;;;;;18.51;66.06;99744.88;4998705;28;19925;-73
2022/07/10 00:07:50;;;;;;;;;;;;;;;18.60;65.99;99735.97;4998757;28;19921;-73
2022/07/10 00:10:19;;;;;;;;;;;;;;;18.68;65.60;99737.44;4998709;28;19926;-75
2022/07/10 00:12:48;;;;;;;;;;;;;;;18.74;65.50;99726.88;4998024;28;19921;-73
2022/07/10 00:15:17;;;;;;;;;;;;;;;18.78;65.38;99721.59;4998655;28;19933;-74
2022/07/10 00:17:46;;;;;;;;;;;;;;;18.78;65.23;99721.59;4998222;28;19928;-73
2022/07/10 00:20:15;;;;;;;;;;;;;;;18.79;65.25;99712.97;4998469;28;20335;-73
2022/07/10 00:22:44;;;;;;;;;;;;;;;18.78;65.23;99708.69;4998073;28;19926;-74
2022/07/10 00:25:14;;;;;;;;;;;;;;;18.81;65.01;99706.84;4998322;28;19971;-72
2022/07/10 00:27:43;;;;;;;;;;;;;;;18.78;65.53;99711.25;4998081;28;20012;-73
2022/07/10 00:30:12;;;;;;;;;;;;;;;18.68;65.98;99705.56;4997944;28;19980;-73
2022/07/10 00:32:41;;;;;;;;;;;;;;;18.65;66.12;99714.25;4998184;28;19985;-72
2022/07/10 00:35:09;;;;;;;;;;;;;;;18.64;66.02;99712.56;4997948;28;19972;-72
2022/07/10 00:37:38;;;;;;;;;;;;;;;18.54;66.23;99713.78;4997928;28;19921;-73
2022/07/10 00:40:07;;;;;;;;;;;;;;;18.30;66.63;99719.69;4980507;28;19925;-73
2022/07/10 00:42:37;;;;;;;;;;;;;;;18.28;66.76;99716.31;4997738;28;19921;-74
2022/07/10 00:45:06;;;;;;;;;;;;;;;18.13;66.93;99714.19;4998423;28;19943;-74
2022/07/10 00:47:35;;;;;;;;;;;;;;;17.94;67.54;99710.47;4997593;28;19921;-74
2022/07/10 00:50:04;;;;;;;;;;;;;;;17.85;67.85;99705.59;4997599;28;19968;-74
2022/07/10 00:52:33;;;;;;;;;;;;;;;17.76;68.34;99709.28;4980585;28;19925;-73
2022/07/10 00:55:03;;;;;;;;;;;;;;;17.65;68.99;99707.91;4997551;28;19922;-73
2022/07/10 00:57:31;;;;;;;;;;;;;;;17.64;69.17;99707.06;4980342;28;19921;-72
2022/07/10 01:00:01;;;;;;;;;;;;;;;17.54;69.67;99704.81;4997419;28;19922;-72
2022/07/10 01:02:30;;;;;;;;;;;;;;;17.61;69.60;99704.56;4997512;28;19921;-73
2022/07/10 01:04:58;;;;;;;;;;;;;;;17.56;69.67;99703.00;4997630;28;19922;-73
2022/07/10 01:07:27;;;;;;;;;;;;;;;17.65;69.67;99700.16;4997500;28;19982;-73
2022/07/10 01:09:57;;;;;;;;;;;;;;;17.68;70.03;99705.25;4997315;28;19922;-73
2022/07/10 01:12:25;;;;;;;;;;;;;;;17.64;70.18;99696.72;4996070;28;19957;-72
2022/07/10 01:14:54;;;;;;;;;;;;;;;17.64;70.32;99701.03;4997178;28;19922;-74
2022/07/10 01:17:25;;;;;;;;;;;;;;;17.57;70.51;99696.94;4997110;28;19928;-73
2022/07/10 01:19:53;;;;;;;;;;;;;;;17.55;70.39;99696.16;4997416;28;19926;-75
2022/07/10 01:22:23;;;;;;;;;;;;;;;17.48;70.77;99692.03;4996990;28;19928;-73
2022/07/10 01:24:52;;;;;;;;;;;;;;;17.48;70.90;99697.19;4997283;28;19965;-73
2022/07/10 01:27:20;;;;;;;;;;;;;;;17.40;71.29;99690.50;4996819;28;19973;-74
2022/07/10 01:29:49;;;;;;;;;;;;;;;17.43;71.20;99692.16;4996820;28;20387;-72
2022/07/10 01:32:18;;;;;;;;;;;;;;;17.43;71.06;99693.00;4996824;28;19928;-74
2022/07/10 01:34:47;;;;;;;;;;;;;;;17.49;70.79;99691.16;4979426;28;19929;-73
2022/07/10 01:37:15;;;;;;;;;;;;;;;17.60;70.48;99683.97;4979662;28;19922;-72
2022/07/10 01:39:45;;;;;;;;;;;;;;;17.54;70.27;99681.56;4996730;28;19925;-74
2022/07/10 01:42:14;;;;;;;;;;;;;;;17.52;70.40;99680.75;4996684;28;19926;-72
2022/07/10 01:44:42;;;;;;;;;;;;;;;17.54;70.38;99673.84;4979182;28;19922;-74
2022/07/10 01:47:11;;;;;;;;;;;;;;;17.58;70.08;99672.84;4996516;28;19975;-74
2022/07/10 01:49:39;;;;;;;;;;;;;;;17.58;69.96;99671.13;4996632;28;19976;-74
2022/07/10 01:52:09;;;;;;;;;;;;;;;17.48;70.21;99664.50;4996486;28;19922;-73
2022/07/10 01:54:38;;;;;;;;;;;;;;;17.35;70.46;99658.81;4979370;28;19922;-73
2022/07/10 01:57:09;;;;;;;;;;;;;;;17.30;70.92;99659.84;4996696;28;20278;-73
2022/07/10 01:59:37;;;;;;;;;;;;;;;17.38;71.05;99660.47;4996497;28;20374;-72
2022/07/10 02:02:06;;;;;;;;;;;;;;;17.24;70.57;99655.72;4996283;28;19928;-73
2022/07/10 02:07:13;;;;;;;;;;;;;;;17.11;71.59;99658.66;4996434;28;19925;-72
2022/07/10 02:09:42;;;;;;;;;;;;;;;17.11;71.61;99653.50;4996178;28;19968;-73
2022/07/10 02:12:12;;;;;;;;;;;;;;;17.10;71.74;99644.09;4995888;28;20435;-73
2022/07/10 02:14:41;;;;;;;;;;;;;;;17.00;72.13;99651.22;4996415;28;19996;-72
2022/07/10 02:17:11;;;;;;;;;;;;;;;16.97;72.16;99647.88;4996271;28;19957;-73
2022/07/10 02:19:39;;;;;;;;;;;;;;;16.95;72.23;99653.09;4996275;28;20394;-73
2022/07/10 02:22:09;;;;;;;;;;;;;;;16.93;72.32;99649.72;4996499;28;20280;-72
2022/07/10 02:24:37;;;;;;;;;;;;;;;16.96;72.30;99647.06;4996220;28;19925;-74
2022/07/10 02:27:06;;;;;;;;;;;;;;;16.92;72.25;99647.16;4995967;28;19988;-73
2022/07/10 02:29:37;;;;;;;;;;;;;;;16.91;72.26;99648.91;4978387;28;19957;-74
2022/07/10 02:32:07;;;;;;;;;;;;;;;16.88;72.18;99646.41;4996041;28;19921;-72
2022/07/10 02:34:35;;;;;;;;;;;;;;;16.88;72.09;99646.41;4995971;28;19926;-74
2022/07/10 02:37:04;;;;;;;;;;;;;;;16.84;71.97;99644.81;4995846;28;19921;-73
2022/07/10 02:39:32;;;;;;;;;;;;;;;16.77;71.99;99638.13;4995944;28;19925;-73
2022/07/10 02:42:01;;;;;;;;;;;;;;;16.69;72.36;99646.06;4995817;28;20331;-74
2022/07/10 02:44:30;;;;;;;;;;;;;;;16.78;72.05;99644.94;4995515;28;19921;-72
2022/07/10 02:47:00;;;;;;;;;;;;;;;16.75;71.82;99637.28;4995328;28;19921;-73
2022/07/10 02:49:29;;;;;;;;;;;;;;;16.72;71.44;99634.81;4996010;28;19929;-74
2022/07/10 02:51:58;;;;;;;;;;;;;;;16.62;71.48;99636.78;4995357;28;19922;-73
2022/07/10 02:54:26;;;;;;;;;;;;;;;16.55;71.27;99631.81;4995879;28;20352;-73
2022/07/10 02:56:55;;;;;;;;;;;;;;;16.51;71.40;99625.00;4995198;28;19926;-72
2022/07/10 02:59:23;;;;;;;;;;;;;;;16.40;71.79;99621.88;4995212;28;19922;-73
2022/07/10 03:01:52;;;;;;;;;;;;;;;16.34;71.88;99617.72;4995184;28;19922;-72
2022/07/10 03:04:22;;;;;;;;;;;;;;;16.28;72.09;99615.31;4995137;28;19922;-74
2022/07/10 03:06:51;;;;;;;;;;;;;;;16.34;72.05;99622.03;4994960;28;19922;-72
2022/07/10 03:09:19;;;;;;;;;;;;;;;16.30;72.02;99620.41;4995051;28;19922;-73
2022/07/10 03:11:48;;;;;;;;;;;;;;;16.30;72.50;99622.97;4995020;28;19922;-72
2022/07/10 03:14:16;;;;;;;;;;;;;;;16.34;72.62;99622.03;4994855;28;19921;-72
2022/07/10 03:16:45;;;;;;;;;;;;;;;16.33;72.38;99631.50;4994903;28;20388;-73
2022/07/10 03:19:13;;;;;;;;;;;;;;;16.33;72.65;99630.63;4994839;28;19953;-73
2022/07/10 03:21:44;;;;;;;;;;;;;;;16.30;73.05;99625.56;4995450;28;20315;-73
2022/07/10 03:24:13;;;;;;;;;;;;;;;16.28;72.97;99624.75;4995165;28;19929;-73
2022/07/10 03:26:42;;;;;;;;;;;;;;;16.28;72.92;99627.31;4994849;28;19956;-73
2022/07/10 03:29:10;;;;;;;;;;;;;;;16.22;73.24;99618.00;4994629;28;19922;-72
2022/07/10 03:31:38;;;;;;;;;;;;;;;16.26;73.25;99619.66;4995089;28;19921;-73
2022/07/10 03:34:07;;;;;;;;;;;;;;;16.43;73.10;99619.22;4994681;28;19928;-73
2022/07/10 03:36:36;;;;;;;;;;;;;;;16.36;72.92;99630.56;4994037;28;19928;-72
2022/07/10 03:39:06;;;;;;;;;;;;;;;16.37;73.38;99627.09;4977487;28;19960;-73
2022/07/10 03:41:34;;;;;;;;;;;;;;;16.35;73.37;99629.72;4994929;28;20491;-73
2022/07/10 03:44:02;;;;;;;;;;;;;;;16.40;73.69;99638.19;4994628;28;19968;-73
2022/07/10 03:46:31;;;;;;;;;;;;;;;16.48;73.33;99641.41;4994920;28;20015;-73
2022/07/10 03:48:59;;;;;;;;;;;;;;;16.56;73.12;99638.66;4994500;28;19921;-74
2022/07/10 03:51:28;;;;;;;;;;;;;;;16.66;72.87;99640.97;4994607;28;20291;-72
2022/07/10 03:53:57;;;;;;;;;;;;;;;16.72;72.60;99645.13;4994522;28;19922;-73
2022/07/10 03:59:05;;;;;;;;;;;;;;;16.50;72.80;99633.63;4994469;28;19926;-75
2022/07/10 04:01:34;;;;;;;;;;;;;;;16.58;72.63;99631.75;4994502;28;19925;-74
2022/07/10 04:04:02;;;;;;;;;;;;;;;16.62;72.47;99630.78;4977035;28;20379;-73
2022/07/10 04:06:31;;;;;;;;;;;;;;;16.69;72.17;99619.44;4994701;28;20020;-73
2022/07/10 04:08:59;;;;;;;;;;;;;;;16.82;71.84;99615.63;4994528;28;20271;-73
2022/07/10 04:11:29;;;;;;;;;;;;;;;16.94;71.71;99599.81;4994376;28;19929;-73
2022/07/10 04:13:57;;;;;;;;;;;;;;;17.00;71.34;99609.97;4994259;28;20368;-73
2022/07/10 04:16:26;;;;;;;;;;;;;;;16.94;71.39;99599.81;4994303;28;19972;-73
2022/07/10 04:18:55;;;;;;;;;;;;;;;16.99;71.55;99597.13;4994217;28;19926;-75
2022/07/10 04:21:23;;;;;;;;;;;;;;;17.13;71.24;99606.16;4994265;28;19922;-72
2022/07/10 04:23:51;;;;;;;;;;;;;;;17.20;71.21;99605.06;4994238;28;20426;-73
2022/07/10 04:26:20;;;;;;;;;;;;;;;17.23;71.24;99607.56;4994223;28;19922;-74
2022/07/10 04:28:50;;;;;;;;;;;;;;;17.38;71.22;99594.25;4994129;28;20016;-73
2022/07/10 04:31:18;;;;;;;;;;;;;;;17.55;70.85;99600.66;4994149;28;20016;-74
2022/07/10 04:33:47;;;;;;;;;;;;;;;17.46;70.75;99608.66;4994152;28;19922;-72
2022/07/10 04:36:16;;;;;;;;;;;;;;;17.46;71.24;99606.06;4994437;28;19964;-74
2022/07/10 04:38:44;;;;;;;;;;;;;;;17.54;71.49;99601.56;4994107;28;19972;-72
2022/07/10 04:41:13;;;;;;;;;;;;;;;17.56;71.30;99615.25;4994115;28;19992;-73
2022/07/10 04:43:41;;;;;;;;;;;;;;;17.53;71.43;99620.50;4994047;28;20376;-75
2022/07/10 04:46:11;;;;;;;;;;;;;;;17.47;71.52;99625.84;4994182;28;20025;-74
2022/07/10 04:48:39;;;;;;;;;;;;;;;17.39;71.77;99614.00;4997595;28;19922;-73
2022/07/10 04:51:09;;;;;;;;;;;;;;;17.32;71.73;99606.47;4997893;28;19921;-73
2022/07/10 04:53:37;;;;;;;;;;;;;;;17.33;72.06;99606.44;4997571;28;19922;-74
2022/07/10 04:56:06;;;;;;;;;;;;;;;17.52;71.90;99605.91;4997881;28;19926;-73
2022/07/10 04:58:35;;;;;;;;;;;;;;;17.76;71.22;99610.31;4997505;28;19922;-73
2022/07/10 05:01:04;;;;;;;;;;;;;;;18.08;70.67;99605.00;4997458;28;19949;-75
2022/07/10 05:03:34;;;;;;;;;;;;;;;18.40;69.69;99611.69;4997407;28;19929;-74
2022/07/10 05:06:02;;;;;;;;;;;;;;;18.68;68.74;99607.31;4997370;28;19968;-74
2022/07/10 05:08:31;;;;;;;;;;;;;;;18.94;67.76;99603.78;4997239;28;19928;-73
2022/07/10 05:10:59;;;;;;;;;;;;;;;19.19;66.21;99600.28;4980179;28;20430;-74
2022/07/10 05:13:28;;;;;;;;;;;;;;;19.44;65.49;99601.94;4997075;28;20265;-73
2022/07/10 05:15:56;;;;;;;;;;;;;;;19.66;64.50;99601.09;4997181;28;20406;-73
2022/07/10 05:18:25;;;;;;;;;;;;;;;19.85;63.92;99602.03;4980050;28;19968;-72
2022/07/10 05:20:55;;;;;;;;;;;;;;;20.05;62.95;99599.50;4997446;28;20328;-72
2022/07/10 05:23:24;;;;;;;;;;;;;;;20.26;62.41;99602.16;4997337;28;20340;-72
2022/07/10 05:25:52;;;;;;;;;;;;;;;20.38;61.47;99597.31;4997521;28;19922;-74
2022/07/10 05:28:21;;;;;;;;;;;;;;;20.46;60.76;99600.44;4996895;28;19929;-72
2022/07/10 05:30:49;;;;;;;;;;;;;;;20.57;59.96;99605.13;4996925;28;19922;-73
2022/07/10 05:33:18;;;;;;;;;;;;;;;20.64;59.55;99593.59;4997400;28;20284;-73
2022/07/10 05:35:47;;;;;;;;;;;;;;;20.66;59.43;99602.16;4997438;28;20256;-72
2022/07/10 05:38:17;;;;;;;;;;;;;;;20.66;59.28;99596.97;4996757;28;20375;-72
2022/07/10 05:40:45;;;;;;;;;;;;;;;20.76;58.90;99598.25;4996840;28;19929;-73
2022/07/10 05:43:14;;;;;;;;;;;;;;;20.81;58.42;99591.13;4996670;28;19921;-72
2022/07/10 05:45:42;;;;;;;;;;;;;;;20.87;57.93;99590.88;4996918;28;19980;-73
2022/07/10 05:48:17;;;;;;;;;;;;;;;21.00;57.95;99589.41;4996555;28;19966;-73
2022/07/10 05:50:45;;;;;;;;;;;;;;;21.18;57.50;99591.22;4996560;28;19921;-72
2022/07/10 05:53:13;;;;;;;;;;;;;;;21.12;57.61;99591.47;4996391;28;19922;-73
2022/07/10 05:55:43;;;;;;;;;;;;;;;21.22;56.90;99591.91;4996502;28;20016;-74
2022/07/10 05:58:12;;;;;;;;;;;;;;;21.30;56.30;99584.63;4995841;28;20372;-73
2022/07/10 06:00:42;;;;;;;;;;;;;;;21.46;56.04;99589.94;4996479;28;19922;-73
2022/07/10 06:03:11;;;;;;;;;;;;;;;21.51;55.14;99587.97;4996349;28;20395;-73
2022/07/10 06:05:40;;;;;;;;;;;;;;;21.57;54.93;99592.88;4996232;28;19986;-74
2022/07/10 06:08:08;;;;;;;;;;;;;;;21.64;54.90;99594.28;4996398;28;19926;-73
2022/07/10 06:10:37;;;;;;;;;;;;;;;21.69;55.30;99592.31;4996124;28;19950;-73
2022/07/10 06:13:07;;;;;;;;;;;;;;;21.68;55.20;99595.81;4995842;28;19922;-73
2022/07/10 06:15:35;;;;;;;;;;;;;;;21.80;55.24;99584.84;4996498;28;19922;-72
2022/07/10 06:18:04;;;;;;;;;;;;;;;21.98;54.70;99586.56;4978691;28;19922;-74
2022/07/10 06:20:33;;;;;;;;;;;;;;;21.97;53.86;99592.69;4995857;28;19922;-74
2022/07/10 06:23:01;;;;;;;;;;;;;;;22.02;53.80;99588.13;4995919;28;19922;-74
2022/07/10 06:25:30;;;;;;;;;;;;;;;22.06;54.09;99587.03;4978716;28;19921;-75
2022/07/10 06:27:58;;;;;;;;;;;;;;;22.08;53.51;99590.41;4996079;28;19922;-74
2022/07/10 06:30:28;;;;;;;;;;;;;;;22.02;52.92;99590.72;4996020;28;20020;-72
2022/07/10 06:32:57;;;;;;;;;;;;;;;22.11;53.62;99595.47;4996054;28;19921;-74
2022/07/10 06:35:25;;;;;;;;;;;;;;;22.14;53.68;99587.53;4995245;28;19922;-73
2022/07/10 06:37:53;;;;;;;;;;;;;;;21.96;53.88;99588.41;4978125;28;19922;-72
2022/07/10 06:40:21;;;;;;;;;;;;;;;21.55;54.29;99585.16;4995514;28;20372;-74
2022/07/10 06:42:50;;;;;;;;;;;;;;;21.31;54.73;99588.88;4995544;28;19928;-76
2022/07/10 06:45:20;;;;;;;;;;;;;;;21.02;54.82;99594.53;4995449;28;19928;-74
2022/07/10 06:50:30;;;;;;;;;;;;;;;20.95;54.65;99585.31;4995604;28;19945;-73
2022/07/10 06:52:59;;;;;;;;;;;;;;;21.05;54.34;99582.28;4995697;28;20041;-75
2022/07/10 06:55:28;;;;;;;;;;;;;;;21.25;54.77;99581.38;4945912;28;19926;-72
2022/07/10 06:57:56;;;;;;;;;;;;;;;21.38;54.85;99575.53;4995093;28;19921;-73
2022/07/10 07:00:25;;;;;;;;;;;;;;;21.57;54.13;99577.31;4995504;28;19921;-73
2022/07/10 07:02:55;;;;;;;;;;;;;;;21.87;53.68;99570.66;4995456;28;19968;-73
2022/07/10 07:05:24;;;;;;;;;;;;;;;22.11;53.63;99582.47;4995069;28;19922;-73
2022/07/10 07:07:52;;;;;;;;;;;;;;;22.14;51.83;99578.88;4995398;28;19976;-74
2022/07/10 07:10:20;;;;;;;;;;;;;;;22.19;51.20;99582.94;4994371;28;19945;-72
2022/07/10 07:12:49;;;;;;;;;;;;;;;22.30;51.79;99585.84;4992629;28;19921;-72
2022/07/10 07:15:18;;;;;;;;;;;;;;;22.37;51.77;99586.38;4975791;28;19929;-73
2022/07/10 07:18:07;;;;;;;;;;;;;;;22.35;50.58;99589.06;4975523;28;19969;-72
2022/07/10 07:23:16;;;;;;;;;;;;;;;22.23;49.92;99589.66;4975800;28;20315;-73
2022/07/10 07:25:46;;;;;;;;;;;;;;;22.37;50.42;99592.41;4974268;28;20387;-72
2022/07/10 07:28:17;;;;;;;;;;;;;;;22.56;50.11;99598.38;4975475;28;19949;-72
2022/07/10 07:30:46;;;;;;;;;;;;;;;22.76;49.63;99584.38;4975618;28;19929;-74
2022/07/10 07:33:14;;;;;;;;;;;;;;;22.94;48.74;99582.59;4975276;28;19929;-72
2022/07/10 07:35:44;;;;;;;;;;;;;;;23.09;49.60;99576.53;4975630;28;19922;-72
2022/07/10 07:38:13;;;;;;;;;;;;;;;23.16;48.81;99573.53;4975478;28;19953;-73
2022/07/10 07:40:41;;;;;;;;;;;;;;;23.02;48.67;99576.03;4975599;28;19968;-73
2022/07/10 07:43:10;;;;;;;;;;;;;;;22.95;49.15;99571.22;4975426;28;19944;-72
2022/07/10 07:45:38;;;;;;;;;;;;;;;22.88;49.39;99575.06;4975108;28;19953;-73
2022/07/10 07:48:07;;;;;;;;;;;;;;;22.89;49.80;99580.19;4975097;28;19922;-72
2022/07/10 07:50:36;;;;;;;;;;;;;;;22.75;49.28;99574.88;4975001;28;19922;-73
2022/07/10 07:53:07;;;;;;;;;;;;;;;22.61;49.78;99575.59;4975072;28;19957;-73
2022/07/10 07:55:35;;;;;;;;;;;;;;;22.54;50.95;99578.56;4975154;28;20365;-72
2022/07/10 07:58:04;;;;;;;;;;;;;;;22.77;50.97;99574.81;4975046;28;19929;-73
2022/07/10 08:00:33;;;;;;;;;;;;;;;23.04;50.64;99568.13;4973957;28;19922;-72
2022/07/10 08:03:01;;;;;;;;;;;;;;;23.00;50.23;99567.47;4975184;28;20261;-73
2022/07/10 08:05:30;;;;;;;;;;;;;;;22.93;49.98;99570.47;4958077;28;20291;-72
2022/07/10 08:08:04;;;;;;;;;;;;;;;22.95;49.51;99573.81;4974852;28;19969;-73
2022/07/10 08:10:34;;;;;;;;;;;;;;;23.03;48.96;99561.25;4974835;28;19926;-76
2022/07/10 08:13:05;;;;;;;;;;;;;;;23.11;47.30;99554.69;4974912;28;19922;-73
2022/07/10 08:15:34;;;;;;;;;;;;;;;23.17;45.97;99549.19;4975057;28;20372;-72
2022/07/10 08:18:04;;;;;;;;;;;;;;;23.28;46.32;99552.03;4975164;28;20389;-73
2022/07/10 08:20:32;;;;;;;;;;;;;;;23.45;46.01;99551.13;4974760;28;19922;-73
2022/07/10 08:23:01;;;;;;;;;;;;;;;23.59;45.41;99550.34;4978162;28;20017;-73
2022/07/10 08:25:30;;;;;;;;;;;;;;;23.81;46.00;99567.31;4978605;28;19922;-72
2022/07/10 08:28:05;;;;;;;;;;;;;;;24.00;45.47;99562.75;4978608;28;20008;-73
2022/07/10 08:30:34;;;;;;;;;;;;;;;24.12;44.39;99556.00;4978550;28;20450;-74
2022/07/10 08:33:02;;;;;;;;;;;;;;;24.14;43.94;99558.53;4978822;28;19926;-71
2022/07/10 08:35:31;;;;;;;;;;;;;;;24.25;44.80;99566.56;4978392;28;19925;-72
2022/07/10 08:37:59;;;;;;;;;;;;;;;24.28;44.98;99569.00;4978316;28;19929;-72
2022/07/10 08:40:32;;;;;;;;;;;;;;;24.28;44.52;99561.19;4978401;28;20408;-72
2022/07/10 08:43:01;;;;;;;;;;;;;;;24.11;43.51;99558.72;4978189;28;20410;-73
2022/07/10 08:45:32;;;;;;;;;;;;;;;23.89;42.64;99562.53;4978235;28;19926;-71
2022/07/10 08:48:02;;;;;;;;;;;;;;;23.75;42.59;99562.47;4978377;28;19922;-73
2022/07/10 08:50:33;;;;;;;;;;;;;;;23.73;42.60;99571.31;4978434;28;19929;-76
2022/07/10 08:53:05;;;;;;;;;;;;;;;23.64;42.88;99564.81;4978591;28;19922;-73
2022/07/10 08:55:34;;;;;;;;;;;;;;;23.49;42.60;99565.66;4978138;28;19922;-75
2022/07/10 08:58:04;;;;;;;;;;;;;;;23.52;42.63;99555.06;4978409;28;19929;-73
2022/07/10 09:00:34;;;;;;;;;;;;;;;23.51;43.36;99558.63;4978046;28;19950;-75
2022/07/10 09:03:02;;;;;;;;;;;;;;;23.52;43.32;99560.28;4978328;28;19922;-76
2022/07/10 09:05:31;;;;;;;;;;;;;;;23.48;43.29;99550.97;4978320;28;19929;-74
2022/07/10 09:07:59;;;;;;;;;;;;;;;23.36;43.21;99554.25;4977874;28;19926;-71
2022/07/10 09:10:28;;;;;;;;;;;;;;;23.35;44.47;99562.97;4976994;28;19933;-71
2022/07/10 09:12:57;;;;;;;;;;;;;;;23.44;44.59;99566.88;4992651;28;19937;-72
2022/07/10 09:15:29;;;;;;;;;;;;;;;23.74;44.61;99566.00;4978110;28;20340;-69
2022/07/10 09:18:00;;;;;;;;;;;;;;;23.93;43.38;99571.84;4978056;28;19926;-69
2022/07/10 09:20:30;;;;;;;;;;;;;;;23.81;42.85;99582.97;4977580;28;20327;-72
2022/07/10 09:22:59;;;;;;;;;;;;;;;23.47;43.98;99598.78;4977556;28;20407;-72
2022/07/10 09:25:34;;;;;;;;;;;;;;;23.05;44.99;99608.88;4977442;28;20390;-71
2022/07/10 09:28:06;;;;;;;;;;;;;;;22.80;45.99;99611.06;4977598;28;19922;-72
2022/07/10 09:30:36;;;;;;;;;;;;;;;22.46;46.83;99617.97;4977366;28;19929;-70
2022/07/10 09:33:15;;;;;;;;;;;;;;;22.28;47.31;99616.28;4976456;28;19961;-70
2022/07/10 09:38:46;;;;;;;;;;;;;;;21.64;49.52;99609.88;4977205;28;19938;-70
2022/07/10 09:41:15;;;;;;;;;;;;;;;21.47;50.14;99600.25;4977337;28;19922;-69
2022/07/10 09:43:44;;;;;;;;;;;;;;;21.35;50.22;99599.06;4977086;28;19977;-71
2022/07/10 09:46:12;;;;;;;;;;;;;;;21.33;50.44;99605.25;4976914;28;19929;-73
2022/07/10 09:48:41;;;;;;;;;;;;;;;21.32;51.37;99603.56;4976783;28;19930;-71
2022/07/10 09:51:12;;;;;;;;;;;;;;;21.41;51.63;99613.53;4977032;28;20438;-72
2022/07/10 09:53:43;;;;;;;;;;;;;;;21.48;51.61;99603.69;4977466;28;19922;-73
2022/07/10 09:56:12;;;;;;;;;;;;;;;21.55;51.70;99605.06;4977377;28;19922;-70
2022/07/10 09:58:40;;;;;;;;;;;;;;;21.69;52.14;99600.91;4977019;28;19977;-70
2022/07/10 10:01:10;;;;;;;;;;;;;;;22.08;51.76;99597.34;4976901;28;19926;-71
2022/07/10 10:03:39;;;;;;;;;;;;;;;22.42;51.14;99592.19;4976822;28;19928;-71
2022/07/10 10:06:11;;;;;;;;;;;;;;;22.81;49.93;99592.78;4976873;28;19949;-70
2022/07/10 10:08:50;;;;;;;;;;;;;;;23.19;49.15;99588.16;4977140;28;19922;-70
2022/07/10 10:11:20;;;;;;;;;;;;;;;23.44;48.31;99587.72;4976762;28;19925;-71
2022/07/10 10:13:50;;;;;;;;;;;;;;;23.55;48.40;99586.19;4976562;28;19933;-73
2022/07/10 10:16:20;;;;;;;;;;;;;;;23.70;47.44;99574.06;4975711;28;19922;-74
2022/07/10 10:21:29;;;;;;;;;;;;;;;23.93;46.14;99569.25;4977113;28;19932;-73
2022/07/10 10:24:01;;;;;;;;;;;;;;;24.11;46.83;99563.94;4976646;28;20356;-71
2022/07/10 10:26:30;;;;;;;;;;;;;;;24.30;45.93;99564.53;4976537;28;19933;-72
2022/07/10 10:29:00;;;;;;;;;;;;;;;24.61;46.39;99560.03;4976474;28;19955;-75
2022/07/10 10:31:30;;;;;;;;;;;;;;;24.67;45.38;99556.19;4976592;28;19922;-71
2022/07/10 10:34:00;;;;;;;;;;;;;;;24.60;44.67;99552.28;4976336;28;19929;-72
2022/07/10 10:36:43;;;;;;;;;;;;;;;24.72;44.28;99551.53;4976355;28;19977;-72
2022/07/10 10:39:16;;;;;;;;;;;;;;;24.86;43.39;99538.50;4976593;28;19922;-75
2022/07/10 10:41:47;;;;;;;;;;;;;;;24.68;43.15;99555.28;4991741;28;19928;-78
2022/07/10 10:44:22;;;;;;;;;;;;;;;24.65;42.11;99534.56;4976388;28;19972;-72
2022/07/10 10:46:56;;;;;;;;;;;;;;;24.77;41.96;99544.28;4976128;28;20017;-72
2022/07/10 10:49:25;;;;;;;;;;;;;;;24.69;42.04;99536.03;4976066;28;19922;-75
2022/07/10 10:51:58;;;;;;;;;;;;;;;24.73;41.67;99532.34;4974934;28;19945;-75
2022/07/10 10:54:28;;;;;;;;;;;;;;;24.79;41.96;99537.19;4976281;28;20326;-71
2022/07/10 10:57:08;;;;;;;;;;;;;;;24.79;40.84;99521.53;4976188;28;19922;-75
2022/07/10 10:59:47;;;;;;;;;;;;;;;24.91;41.46;99515.56;4976039;28;20020;-73
2022/07/10 11:02:22;;;;;;;;;;;;;;;25.03;40.51;99525.25;4975957;28;19961;-74
2022/07/10 11:04:51;;;;;;;;;;;;;;;25.10;40.08;99529.16;4975712;28;19922;-75
2022/07/10 11:07:34;;;;;;;;;;;;;;;25.03;39.17;99524.41;4975696;28;19922;-73
2022/07/10 11:10:23;;;;;;;;;;;;;;;25.07;39.56;99518.91;4975528;28;20017;-75
2022/07/10 11:13:00;;;;;;;;;;;;;;;25.03;38.05;99513.94;4972443;28;19922;-78
2022/07/10 11:15:30;;;;;;;;;;;;;;;25.04;37.54;99510.41;4975680;28;19950;-72
2022/07/10 11:17:58;;;;;;;;;;;;;;;24.97;36.90;99523.03;4975518;28;19926;-72
2022/07/10 11:20:27;;;;;;;;;;;;;;;25.06;36.70;99526.84;4975596;28;19929;-75
2022/07/10 11:23:02;;;;;;;;;;;;;;;25.19;37.68;99518.13;4975723;28;19922;-73
2022/07/10 11:25:43;;;;;;;;;;;;;;;25.13;36.74;99525.50;4975707;28;20363;-71
2022/07/10 11:28:13;;;;;;;;;;;;;;;25.21;36.96;99512.81;4975812;28;19928;-74
2022/07/10 11:30:45;;;;;;;;;;;;;;;25.29;36.20;99515.75;4975774;28;19921;-74
2022/07/10 11:33:15;;;;;;;;;;;;;;;25.30;36.41;99507.84;4975377;28;20020;-76
2022/07/10 11:35:45;;;;;;;;;;;;;;;25.45;36.62;99505.22;4975529;28;19922;-76
2022/07/10 11:38:19;;;;;;;;;;;;;;;25.49;35.97;99507.53;4975629;28;19928;-73
2022/07/10 11:40:47;;;;;;;;;;;;;;;25.65;36.01;99499.53;4975740;28;20287;-76
2022/07/10 11:43:20;;;;;;;;;;;;;;;25.48;35.62;99490.19;4975343;28;19929;-71
2022/07/10 11:45:48;;;;;;;;;;;;;;;25.57;35.68;99499.19;4975256;28;19960;-72
2022/07/10 11:48:21;;;;;;;;;;;;;;;25.75;35.41;99495.38;4975462;28;19961;-70
2022/07/10 11:50:50;;;;;;;;;;;;;;;25.79;35.16;99502.09;4974092;28;19973;-70
2022/07/10 11:53:23;;;;;;;;;;;;;;;25.69;34.63;99493.16;4990340;28;19945;-72
2022/07/10 11:55:52;;;;;;;;;;;;;;;25.65;35.19;99504.78;4975994;28;19932;-74
2022/07/10 11:58:23;;;;;;;;;;;;;;;25.38;34.13;99493.44;4981457;28;20372;-72
2022/07/10 12:00:58;;;;;;;;;;;;;;;25.50;33.69;99487.47;4981521;28;19926;-72
2022/07/10 12:03:27;;;;;;;;;;;;;;;25.68;34.08;99486.25;4981586;28;19929;-72
2022/07/10 12:06:02;;;;;;;;;;;;;;;25.69;32.88;99480.09;4981487;28;19929;-71
2022/07/10 12:08:30;;;;;;;;;;;;;;;25.82;32.60;99484.41;4981511;28;20038;-74
2022/07/10 12:10:58;;;;;;;;;;;;;;;25.82;31.40;99481.78;4981745;28;20364;-71
2022/07/10 12:13:28;;;;;;;;;;;;;;;25.82;30.88;99483.56;4979989;28;19922;-76
2022/07/10 12:15:57;;;;;;;;;;;;;;;25.87;31.28;99486.72;4981406;28;19973;-72
2022/07/10 12:18:28;;;;;;;;;;;;;;;25.92;31.58;99489.88;4981351;28;19922;-74
2022/07/10 12:20:59;;;;;;;;;;;;;;;25.64;30.91;99490.00;4981796;28;20009;-74
2022/07/10 12:23:27;;;;;;;;;;;;;;;25.47;30.61;99490.28;4981326;28;20372;-77
2022/07/10 12:25:56;;;;;;;;;;;;;;;25.48;30.76;99495.41;4981381;28;19926;-73
2022/07/10 12:28:24;;;;;;;;;;;;;;;25.63;31.17;99498.78;4981638;28;19922;-73
2022/07/10 12:30:54;;;;;;;;;;;;;;;25.58;31.19;99498.28;4981233;28;19922;-72
2022/07/10 12:33:23;;;;;;;;;;;;;;;25.66;30.45;99494.22;4981215;28;19922;-72
2022/07/10 12:35:53;;;;;;;;;;;;;;;25.75;31.01;99488.38;4981470;28;19969;-73
2022/07/10 12:38:22;;;;;;;;;;;;;;;25.88;30.90;99491.03;4981120;28;19922;-73
2022/07/10 12:40:51;;;;;;;;;;;;;;;25.91;30.70;99493.44;4981405;28;20025;-70
2022/07/10 12:43:26;;;;;;;;;;;;;;;25.88;30.38;99488.41;4981004;28;19922;-70
2022/07/10 12:46:05;;;;;;;;;;;;;;;25.80;30.24;99495.91;4996121;28;19973;-69
2022/07/10 12:48:35;;;;;;;;;;;;;;;25.89;30.89;99496.13;4981043;28;20291;-76
2022/07/10 12:51:18;;;;;;;;;;;;;;;25.92;30.70;99508.19;4981324;28;20284;-71
2022/07/10 12:53:47;;;;;;;;;;;;;;;25.93;30.61;99512.47;4981259;28;20355;-73
2022/07/10 12:56:27;;;;;;;;;;;;;;;25.90;30.22;99513.53;4980928;28;19922;-71
2022/07/10 12:58:56;;;;;;;;;;;;;;;26.00;30.96;99503.28;4981125;28;20427;-71
2022/07/10 13:01:24;;;;;;;;;;;;;;;26.10;31.41;99503.50;4981219;28;20382;-71
2022/07/10 13:04:00;;;;;;;;;;;;;;;25.89;30.54;99511.84;4981041;28;19925;-70
2022/07/10 13:06:30;;;;;;;;;;;;;;;25.66;30.28;99511.66;4981011;28;19929;-72
2022/07/10 13:08:58;;;;;;;;;;;;;;;25.39;29.89;99506.41;4978985;28;19921;-73
2022/07/10 13:11:28;;;;;;;;;;;;;;;25.26;29.94;99511.59;4978091;28;19969;-75
2022/07/10 13:13:56;;;;;;;;;;;;;;;25.27;30.77;99513.25;4977554;28;19957;-72
2022/07/10 13:16:24;;;;;;;;;;;;;;;25.46;30.87;99517.38;4977785;28;19926;-71